sensor_id;sensor_type;location;lat;lon;timestamp;temperature;humidity
11107;DHT22;5607;48.302;14.294;2022-09-09T00:01:34;15.80;1.00
11107;DHT22;5607;48.302;14.294;2022-09-09T00:07:28;15.70;1.00
11107;DHT22;5607;48.302;14.294;2022-09-09T00:10:39;15.70;1.00
11107;DHT22;5607;48.302;14.294;2022-09-09T00:13:31;15.70;1.00
11107;DHT22;5607;48.302;14.294;2022-09-09T00:16:20;15.60;1.00
11107;DHT22;5607;48.302;14.294;2022-09-09T00:22:15;15.60;1.00
11107;DHT22;5607;48.302;14.294;2022-09-09T00:25:05;15.60;1.00
11107;DHT22;5607;48.302;14.294;2022-09-09T00:27:56;15.60;1.00
11107;DHT22;5607;48.302;14.294;2022-09-09T00:30:42;15.50;1.00
11107;DHT22;5607;48.302;14.294;2022-09-09T00:33:29;15.50;1.00
11107;DHT22;5607;48.302;14.294;2022-09-09T00:36:18;15.40;1.00
11107;DHT22;5607;48.302;14.294;2022-09-09T00:39:05;15.40;1.00
11107;DHT22;5607;48.302;14.294;2022-09-09T00:42:13;15.40;1.00
11107;DHT22;5607;48.302;14.294;2022-09-09T00:47:55;15.40;1.00
11107;DHT22;5607;48.302;14.294;2022-09-09T00:50:59;15.40;1.00
11107;DHT22;5607;48.302;14.294;2022-09-09T00:56:50;15.40;1.00
11107;DHT22;5607;48.302;14.294;2022-09-09T00:59:51;15.60;1.00
11107;DHT22;5607;48.302;14.294;2022-09-09T01:02:39;15.60;1.00
11107;DHT22;5607;48.302;14.294;2022-09-09T01:11:05;15.60;1.00
11107;DHT22;5607;48.302;14.294;2022-09-09T01:14:10;15.60;1.00
11107;DHT22;5607;48.302;14.294;2022-09-09T01:29:16;15.10;1.00
11107;DHT22;5607;48.302;14.294;2022-09-09T01:35:13;15.00;1.00
11107;DHT22;5607;48.302;14.294;2022-09-09T01:38:01;15.00;1.00
11107;DHT22;5607;48.302;14.294;2022-09-09T01:40:47;15.00;1.00
11107;DHT22;5607;48.302;14.294;2022-09-09T01:43:33;15.10;1.00
11107;DHT22;5607;48.302;14.294;2022-09-09T01:46:21;15.10;1.00
11107;DHT22;5607;48.302;14.294;2022-09-09T01:49:08;15.00;1.00
11107;DHT22;5607;48.302;14.294;2022-09-09T01:51:55;15.00;1.00
11107;DHT22;5607;48.302;14.294;2022-09-09T01:54:42;15.10;1.00
11107;DHT22;5607;48.302;14.294;2022-09-09T01:57:30;15.00;1.00
11107;DHT22;5607;48.302;14.294;2022-09-09T02:00:19;15.00;1.00
11107;DHT22;5607;48.302;14.294;2022-09-09T02:03:08;15.10;1.00
11107;DHT22;5607;48.302;14.294;2022-09-09T02:06:00;15.10;1.00
11107;DHT22;5607;48.302;14.294;2022-09-09T02:08:49;15.10;1.00
11107;DHT22;5607;48.302;14.294;2022-09-09T02:11:36;15.00;1.00
11107;DHT22;5607;48.302;14.294;2022-09-09T02:14:23;15.00;1.00
11107;DHT22;5607;48.302;14.294;2022-09-09T02:17:11;15.00;1.00
11107;DHT22;5607;48.302;14.294;2022-09-09T02:20:03;15.00;1.00
11107;DHT22;5607;48.302;14.294;2022-09-09T02:22:50;14.90;1.00
11107;DHT22;5607;48.302;14.294;2022-09-09T02:25:37;14.80;1.00
11107;DHT22;5607;48.302;14.294;2022-09-09T02:28:23;14.70;1.00
11107;DHT22;5607;48.302;14.294;2022-09-09T02:31:11;14.70;1.00
11107;DHT22;5607;48.302;14.294;2022-09-09T02:33:59;14.80;1.00
11107;DHT22;5607;48.302;14.294;2022-09-09T02:36:46;14.80;1.00
11107;DHT22;5607;48.302;14.294;2022-09-09T02:39:33;14.80;1.00
11107;DHT22;5607;48.302;14.294;2022-09-09T02:42:20;14.80;1.00
11107;DHT22;5607;48.302;14.294;2022-09-09T02:45:07;14.70;1.00
11107;DHT22;5607;48.302;14.294;2022-09-09T02:50:47;14.70;1.00
11107;DHT22;5607;48.302;14.294;2022-09-09T02:56:22;14.60;1.00
11107;DHT22;5607;48.302;14.294;2022-09-09T02:59:11;14.60;1.00
11107;DHT22;5607;48.302;14.294;2022-09-09T03:01:57;14.60;1.00
11107;DHT22;5607;48.302;14.294;2022-09-09T03:04:44;14.70;1.00
11107;DHT22;5607;48.302;14.294;2022-09-09T03:07:30;14.60;1.00
11107;DHT22;5607;48.302;14.294;2022-09-09T03:10:16;14.70;1.00
11107;DHT22;5607;48.302;14.294;2022-09-09T03:13:03;14.70;1.00
11107;DHT22;5607;48.302;14.294;2022-09-09T03:15:52;14.60;1.00
11107;DHT22;5607;48.302;14.294;2022-09-09T03:18:38;14.60;1.00
11107;DHT22;5607;48.302;14.294;2022-09-09T03:21:24;14.70;1.00
11107;DHT22;5607;48.302;14.294;2022-09-09T03:24:11;14.70;1.00
11107;DHT22;5607;48.302;14.294;2022-09-09T03:26:57;14.70;1.00
11107;DHT22;5607;48.302;14.294;2022-09-09T03:29:43;14.70;1.00
11107;DHT22;5607;48.302;14.294;2022-09-09T03:32:30;14.80;1.00
11107;DHT22;5607;48.302;14.294;2022-09-09T03:35:17;14.90;1.00
11107;DHT22;5607;48.302;14.294;2022-09-09T03:38:03;15.00;1.00
11107;DHT22;5607;48.302;14.294;2022-09-09T03:40:50;15.00;1.00
11107;DHT22;5607;48.302;14.294;2022-09-09T03:43:37;15.00;1.00
11107;DHT22;5607;48.302;14.294;2022-09-09T03:46:24;15.00;1.00
11107;DHT22;5607;48.302;14.294;2022-09-09T03:49:10;15.10;1.00
11107;DHT22;5607;48.302;14.294;2022-09-09T03:51:56;15.10;1.00
11107;DHT22;5607;48.302;14.294;2022-09-09T03:54:44;15.10;1.00
11107;DHT22;5607;48.302;14.294;2022-09-09T03:57:31;15.10;1.00
11107;DHT22;5607;48.302;14.294;2022-09-09T04:00:17;15.10;1.00
11107;DHT22;5607;48.302;14.294;2022-09-09T04:03:04;15.10;1.00
11107;DHT22;5607;48.302;14.294;2022-09-09T04:05:53;15.10;1.00
11107;DHT22;5607;48.302;14.294;2022-09-09T04:08:40;15.10;1.00
11107;DHT22;5607;48.302;14.294;2022-09-09T04:11:27;15.10;1.00
11107;DHT22;5607;48.302;14.294;2022-09-09T04:14:13;15.10;1.00
11107;DHT22;5607;48.302;14.294;2022-09-09T04:17:00;15.00;1.00
11107;DHT22;5607;48.302;14.294;2022-09-09T04:19:46;15.00;1.00
11107;DHT22;5607;48.302;14.294;2022-09-09T04:22:32;15.00;1.00
11107;DHT22;5607;48.302;14.294;2022-09-09T04:25:20;15.00;1.00
11107;DHT22;5607;48.302;14.294;2022-09-09T04:28:06;15.00;1.00
11107;DHT22;5607;48.302;14.294;2022-09-09T04:30:52;15.00;1.00
11107;DHT22;5607;48.302;14.294;2022-09-09T04:33:38;15.00;1.00
11107;DHT22;5607;48.302;14.294;2022-09-09T04:36:25;15.00;1.00
11107;DHT22;5607;48.302;14.294;2022-09-09T04:39:11;15.10;1.00
11107;DHT22;5607;48.302;14.294;2022-09-09T04:41:57;15.10;1.00
11107;DHT22;5607;48.302;14.294;2022-09-09T04:44:44;15.20;1.00
11107;DHT22;5607;48.302;14.294;2022-09-09T04:47:30;15.20;1.00
11107;DHT22;5607;48.302;14.294;2022-09-09T04:50:16;15.20;1.00
11107;DHT22;5607;48.302;14.294;2022-09-09T04:53:03;15.20;1.00
11107;DHT22;5607;48.302;14.294;2022-09-09T04:55:51;15.20;1.00
11107;DHT22;5607;48.302;14.294;2022-09-09T04:58:38;15.30;1.00
11107;DHT22;5607;48.302;14.294;2022-09-09T05:01:24;15.40;1.00
11107;DHT22;5607;48.302;14.294;2022-09-09T05:04:11;15.40;1.00
11107;DHT22;5607;48.302;14.294;2022-09-09T05:06:57;15.50;1.00
11107;DHT22;5607;48.302;14.294;2022-09-09T05:09:43;15.50;1.00
11107;DHT22;5607;48.302;14.294;2022-09-09T05:12:31;15.60;1.00
11107;DHT22;5607;48.302;14.294;2022-09-09T05:15:17;15.60;1.00
11107;DHT22;5607;48.302;14.294;2022-09-09T05:18:04;15.70;1.00
11107;DHT22;5607;48.302;14.294;2022-09-09T05:20:50;15.70;1.00
11107;DHT22;5607;48.302;14.294;2022-09-09T05:23:37;15.80;1.00
11107;DHT22;5607;48.302;14.294;2022-09-09T05:26:23;15.80;1.00
11107;DHT22;5607;48.302;14.294;2022-09-09T05:29:10;15.90;1.00
11107;DHT22;5607;48.302;14.294;2022-09-09T05:31:56;16.00;1.00
11107;DHT22;5607;48.302;14.294;2022-09-09T05:34:42;16.10;1.00
11107;DHT22;5607;48.302;14.294;2022-09-09T05:37:28;16.20;1.00
11107;DHT22;5607;48.302;14.294;2022-09-09T05:40:16;16.30;1.00
11107;DHT22;5607;48.302;14.294;2022-09-09T05:43:02;16.30;1.00
11107;DHT22;5607;48.302;14.294;2022-09-09T05:45:58;16.50;1.00
11107;DHT22;5607;48.302;14.294;2022-09-09T05:48:47;16.50;1.00
11107;DHT22;5607;48.302;14.294;2022-09-09T05:51:34;16.60;1.00
11107;DHT22;5607;48.302;14.294;2022-09-09T05:54:20;16.70;1.00
11107;DHT22;5607;48.302;14.294;2022-09-09T05:57:06;16.70;1.00
11107;DHT22;5607;48.302;14.294;2022-09-09T05:59:52;16.80;1.00
11107;DHT22;5607;48.302;14.294;2022-09-09T06:02:39;16.70;1.00
11107;DHT22;5607;48.302;14.294;2022-09-09T06:05:27;16.80;1.00
11107;DHT22;5607;48.302;14.294;2022-09-09T06:08:13;16.80;1.00
11107;DHT22;5607;48.302;14.294;2022-09-09T06:11:03;16.90;1.00
11107;DHT22;5607;48.302;14.294;2022-09-09T06:13:50;16.90;1.00
11107;DHT22;5607;48.302;14.294;2022-09-09T06:16:40;17.00;1.00
11107;DHT22;5607;48.302;14.294;2022-09-09T06:19:29;16.90;1.00
11107;DHT22;5607;48.302;14.294;2022-09-09T06:22:16;16.80;1.00
11107;DHT22;5607;48.302;14.294;2022-09-09T06:25:03;16.80;1.00
11107;DHT22;5607;48.302;14.294;2022-09-09T06:27:49;16.80;1.00
11107;DHT22;5607;48.302;14.294;2022-09-09T06:30:35;16.90;1.00
11107;DHT22;5607;48.302;14.294;2022-09-09T06:33:22;17.00;1.00
11107;DHT22;5607;48.302;14.294;2022-09-09T06:36:12;17.00;1.00
11107;DHT22;5607;48.302;14.294;2022-09-09T06:38:59;17.00;1.00
11107;DHT22;5607;48.302;14.294;2022-09-09T06:41:45;17.10;1.00
11107;DHT22;5607;48.302;14.294;2022-09-09T06:44:33;17.30;1.00
11107;DHT22;5607;48.302;14.294;2022-09-09T06:47:19;17.60;1.00
11107;DHT22;5607;48.302;14.294;2022-09-09T06:50:06;17.70;1.00
11107;DHT22;5607;48.302;14.294;2022-09-09T06:52:53;17.80;1.00
11107;DHT22;5607;48.302;14.294;2022-09-09T06:55:39;17.90;1.00
11107;DHT22;5607;48.302;14.294;2022-09-09T06:58:30;17.70;1.00
11107;DHT22;5607;48.302;14.294;2022-09-09T07:01:21;17.80;1.00
11107;DHT22;5607;48.302;14.294;2022-09-09T07:04:07;17.90;1.00
11107;DHT22;5607;48.302;14.294;2022-09-09T07:06:54;18.10;1.00
11107;DHT22;5607;48.302;14.294;2022-09-09T07:09:41;18.40;1.00
11107;DHT22;5607;48.302;14.294;2022-09-09T07:12:27;18.60;1.00
11107;DHT22;5607;48.302;14.294;2022-09-09T07:15:13;18.80;1.00
11107;DHT22;5607;48.302;14.294;2022-09-09T07:18:02;19.00;1.00
11107;DHT22;5607;48.302;14.294;2022-09-09T07:20:52;19.10;1.00
11107;DHT22;5607;48.302;14.294;2022-09-09T07:23:39;19.40;1.40
11107;DHT22;5607;48.302;14.294;2022-09-09T07:26:27;19.60;99.90
11107;DHT22;5607;48.302;14.294;2022-09-09T07:29:13;19.80;99.90
11107;DHT22;5607;48.302;14.294;2022-09-09T07:31:59;19.80;99.90
11107;DHT22;5607;48.302;14.294;2022-09-09T07:34:47;19.70;99.90
11107;DHT22;5607;48.302;14.294;2022-09-09T07:37:35;19.80;99.90
11107;DHT22;5607;48.302;14.294;2022-09-09T07:43:27;19.80;99.90
11107;DHT22;5607;48.302;14.294;2022-09-09T07:46:14;19.90;99.90
11107;DHT22;5607;48.302;14.294;2022-09-09T07:49:01;20.00;99.90
11107;DHT22;5607;48.302;14.294;2022-09-09T07:51:48;20.00;99.90
11107;DHT22;5607;48.302;14.294;2022-09-09T07:57:41;19.90;99.90
11107;DHT22;5607;48.302;14.294;2022-09-09T08:00:27;19.90;99.90
11107;DHT22;5607;48.302;14.294;2022-09-09T08:03:14;19.90;99.90
11107;DHT22;5607;48.302;14.294;2022-09-09T08:06:01;19.80;99.90
11107;DHT22;5607;48.302;14.294;2022-09-09T08:08:49;19.70;99.90
11107;DHT22;5607;48.302;14.294;2022-09-09T08:11:36;19.70;99.90
11107;DHT22;5607;48.302;14.294;2022-09-09T08:14:23;19.70;99.90
11107;DHT22;5607;48.302;14.294;2022-09-09T08:17:09;19.60;99.90
11107;DHT22;5607;48.302;14.294;2022-09-09T08:19:55;19.60;99.90
11107;DHT22;5607;48.302;14.294;2022-09-09T08:22:42;19.60;99.90
11107;DHT22;5607;48.302;14.294;2022-09-09T08:25:29;19.70;99.90
11107;DHT22;5607;48.302;14.294;2022-09-09T08:28:15;19.70;99.90
11107;DHT22;5607;48.302;14.294;2022-09-09T08:31:24;19.70;99.90
11107;DHT22;5607;48.302;14.294;2022-09-09T08:34:08;19.60;99.90
11107;DHT22;5607;48.302;14.294;2022-09-09T08:36:55;19.60;99.90
11107;DHT22;5607;48.302;14.294;2022-09-09T08:39:42;19.50;99.90
11107;DHT22;5607;48.302;14.294;2022-09-09T08:42:35;19.50;99.90
11107;DHT22;5607;48.302;14.294;2022-09-09T08:45:34;19.40;99.90
11107;DHT22;5607;48.302;14.294;2022-09-09T08:48:44;19.30;1.00
11107;DHT22;5607;48.302;14.294;2022-09-09T08:51:33;19.30;1.00
11107;DHT22;5607;48.302;14.294;2022-09-09T08:54:20;19.20;1.00
11107;DHT22;5607;48.302;14.294;2022-09-09T08:57:07;19.20;1.00
11107;DHT22;5607;48.302;14.294;2022-09-09T08:59:57;19.10;1.00
11107;DHT22;5607;48.302;14.294;2022-09-09T09:09:54;18.40;1.00
11107;DHT22;5607;48.302;14.294;2022-09-09T09:12:19;18.40;1.00
11107;DHT22;5607;48.302;14.294;2022-09-09T09:15:25;18.40;1.00
11107;DHT22;5607;48.302;14.294;2022-09-09T09:18:12;18.40;1.00
11107;DHT22;5607;48.302;14.294;2022-09-09T09:21:04;18.30;1.00
11107;DHT22;5607;48.302;14.294;2022-09-09T09:23:59;18.30;1.00
11107;DHT22;5607;48.302;14.294;2022-09-09T09:26:46;18.30;1.00
11107;DHT22;5607;48.302;14.294;2022-09-09T09:29:32;18.20;1.00
11107;DHT22;5607;48.302;14.294;2022-09-09T09:32:20;18.10;1.00
11107;DHT22;5607;48.302;14.294;2022-09-09T09:35:11;18.10;1.00
11107;DHT22;5607;48.302;14.294;2022-09-09T09:37:58;18.10;1.00
11107;DHT22;5607;48.302;14.294;2022-09-09T09:40:54;18.20;1.00
11107;DHT22;5607;48.302;14.294;2022-09-09T09:43:41;18.20;1.00
11107;DHT22;5607;48.302;14.294;2022-09-09T09:46:28;18.10;1.00
11107;DHT22;5607;48.302;14.294;2022-09-09T09:49:15;18.00;1.00
11107;DHT22;5607;48.302;14.294;2022-09-09T09:52:05;18.10;1.00
11107;DHT22;5607;48.302;14.294;2022-09-09T09:54:52;18.00;1.00
11107;DHT22;5607;48.302;14.294;2022-09-09T09:57:39;17.90;1.00
11107;DHT22;5607;48.302;14.294;2022-09-09T10:00:25;17.80;1.00
11107;DHT22;5607;48.302;14.294;2022-09-09T10:03:20;17.90;1.00
11107;DHT22;5607;48.302;14.294;2022-09-09T10:06:07;18.00;1.00
11107;DHT22;5607;48.302;14.294;2022-09-09T10:08:53;18.10;1.00
11107;DHT22;5607;48.302;14.294;2022-09-09T10:17:36;18.60;1.00
11107;DHT22;5607;48.302;14.294;2022-09-09T10:20:39;19.00;1.00
11107;DHT22;5607;48.302;14.294;2022-09-09T10:23:41;19.20;1.00
11107;DHT22;5607;48.302;14.294;2022-09-09T10:32:36;19.60;1.00
11107;DHT22;5607;48.302;14.294;2022-09-09T10:35:28;19.80;1.00
11107;DHT22;5607;48.302;14.294;2022-09-09T10:44:28;19.80;1.00
11107;DHT22;5607;48.302;14.294;2022-09-09T10:56:16;20.20;1.00
11107;DHT22;5607;48.302;14.294;2022-09-09T11:01:55;20.20;1.00
11107;DHT22;5607;48.302;14.294;2022-09-09T11:08:19;20.00;1.00
11107;DHT22;5607;48.302;14.294;2022-09-09T11:11:07;19.90;1.00
11107;DHT22;5607;48.302;14.294;2022-09-09T11:16:57;19.80;1.00
11107;DHT22;5607;48.302;14.294;2022-09-09T11:19:46;19.40;1.00
11107;DHT22;5607;48.302;14.294;2022-09-09T11:25:42;19.10;1.00
11107;DHT22;5607;48.302;14.294;2022-09-09T11:40:16;19.20;1.00
11107;DHT22;5607;48.302;14.294;2022-09-09T11:43:10;19.60;1.00
11107;DHT22;5607;48.302;14.294;2022-09-09T11:45:59;19.80;1.00
11107;DHT22;5607;48.302;14.294;2022-09-09T11:49:03;20.10;1.00
11107;DHT22;5607;48.302;14.294;2022-09-09T11:51:50;20.10;1.00
11107;DHT22;5607;48.302;14.294;2022-09-09T11:54:44;19.90;1.00
11107;DHT22;5607;48.302;14.294;2022-09-09T11:57:32;19.70;1.00
11107;DHT22;5607;48.302;14.294;2022-09-09T12:06:33;19.80;1.00
11107;DHT22;5607;48.302;14.294;2022-09-09T12:09:39;19.60;1.00
11107;DHT22;5607;48.302;14.294;2022-09-09T12:12:33;19.40;1.00
11107;DHT22;5607;48.302;14.294;2022-09-09T12:15:24;19.50;1.00
11107;DHT22;5607;48.302;14.294;2022-09-09T12:18:21;19.50;1.00
11107;DHT22;5607;48.302;14.294;2022-09-09T12:21:20;19.70;1.00
11107;DHT22;5607;48.302;14.294;2022-09-09T12:24:11;19.80;1.00
11107;DHT22;5607;48.302;14.294;2022-09-09T12:27:05;20.00;1.00
11107;DHT22;5607;48.302;14.294;2022-09-09T12:32:58;19.60;1.00
11107;DHT22;5607;48.302;14.294;2022-09-09T12:35:45;19.30;1.00
11107;DHT22;5607;48.302;14.294;2022-09-09T12:38:35;19.00;1.00
11107;DHT22;5607;48.302;14.294;2022-09-09T12:41:26;19.20;1.00
11107;DHT22;5607;48.302;14.294;2022-09-09T12:44:13;19.20;1.00
11107;DHT22;5607;48.302;14.294;2022-09-09T12:47:00;18.80;1.00
11107;DHT22;5607;48.302;14.294;2022-09-09T12:49:48;19.00;1.00
11107;DHT22;5607;48.302;14.294;2022-09-09T12:52:35;19.30;1.00
11107;DHT22;5607;48.302;14.294;2022-09-09T12:55:24;19.40;1.00
11107;DHT22;5607;48.302;14.294;2022-09-09T12:58:11;19.60;1.00
11107;DHT22;5607;48.302;14.294;2022-09-09T13:01:00;19.90;1.00
11107;DHT22;5607;48.302;14.294;2022-09-09T13:03:46;19.90;1.00
11107;DHT22;5607;48.302;14.294;2022-09-09T13:06:33;19.70;1.00
11107;DHT22;5607;48.302;14.294;2022-09-09T13:09:20;19.90;1.00
11107;DHT22;5607;48.302;14.294;2022-09-09T13:12:06;19.80;1.00
11107;DHT22;5607;48.302;14.294;2022-09-09T13:14:58;19.80;1.00
11107;DHT22;5607;48.302;14.294;2022-09-09T13:17:48;19.80;1.00
11107;DHT22;5607;48.302;14.294;2022-09-09T13:20:35;19.90;1.00
11107;DHT22;5607;48.302;14.294;2022-09-09T13:23:21;19.90;1.00
11107;DHT22;5607;48.302;14.294;2022-09-09T13:26:24;20.00;1.00
11107;DHT22;5607;48.302;14.294;2022-09-09T13:29:16;19.70;1.00
11107;DHT22;5607;48.302;14.294;2022-09-09T13:32:05;19.40;1.00
11107;DHT22;5607;48.302;14.294;2022-09-09T13:34:53;19.40;1.00
11107;DHT22;5607;48.302;14.294;2022-09-09T13:37:39;19.30;1.00
11107;DHT22;5607;48.302;14.294;2022-09-09T13:40:28;19.30;1.00
11107;DHT22;5607;48.302;14.294;2022-09-09T13:43:18;19.40;1.00
11107;DHT22;5607;48.302;14.294;2022-09-09T13:52:31;19.60;1.00
11107;DHT22;5607;48.302;14.294;2022-09-09T13:55:11;19.60;1.00
11107;DHT22;5607;48.302;14.294;2022-09-09T13:57:59;19.60;1.00
11107;DHT22;5607;48.302;14.294;2022-09-09T14:00:46;19.70;1.00
11107;DHT22;5607;48.302;14.294;2022-09-09T14:03:33;19.80;1.00
11107;DHT22;5607;48.302;14.294;2022-09-09T14:06:20;19.80;1.00
11107;DHT22;5607;48.302;14.294;2022-09-09T14:09:10;19.90;1.00
11107;DHT22;5607;48.302;14.294;2022-09-09T14:11:56;19.90;1.00
11107;DHT22;5607;48.302;14.294;2022-09-09T14:14:43;19.70;1.00
11107;DHT22;5607;48.302;14.294;2022-09-09T14:17:30;19.60;1.00
11107;DHT22;5607;48.302;14.294;2022-09-09T14:20:17;19.70;1.00
11107;DHT22;5607;48.302;14.294;2022-09-09T14:23:05;19.50;1.00
11107;DHT22;5607;48.302;14.294;2022-09-09T14:25:51;19.50;1.00
11107;DHT22;5607;48.302;14.294;2022-09-09T14:28:38;19.60;1.00
11107;DHT22;5607;48.302;14.294;2022-09-09T14:31:26;19.50;1.00
11107;DHT22;5607;48.302;14.294;2022-09-09T14:34:12;19.30;1.00
11107;DHT22;5607;48.302;14.294;2022-09-09T14:36:59;19.30;1.00
11107;DHT22;5607;48.302;14.294;2022-09-09T14:39:45;19.30;1.00
11107;DHT22;5607;48.302;14.294;2022-09-09T14:42:32;19.20;1.00
11107;DHT22;5607;48.302;14.294;2022-09-09T14:45:19;19.20;1.00
11107;DHT22;5607;48.302;14.294;2022-09-09T14:48:07;19.20;1.00
11107;DHT22;5607;48.302;14.294;2022-09-09T14:50:53;19.20;1.00
11107;DHT22;5607;48.302;14.294;2022-09-09T14:53:40;19.20;1.00
11107;DHT22;5607;48.302;14.294;2022-09-09T14:56:27;19.20;1.00
11107;DHT22;5607;48.302;14.294;2022-09-09T14:59:13;19.10;1.00
11107;DHT22;5607;48.302;14.294;2022-09-09T15:02:00;18.90;1.00
11107;DHT22;5607;48.302;14.294;2022-09-09T15:04:49;19.00;1.00
11107;DHT22;5607;48.302;14.294;2022-09-09T15:07:36;19.00;1.00
11107;DHT22;5607;48.302;14.294;2022-09-09T15:10:23;19.00;1.00
11107;DHT22;5607;48.302;14.294;2022-09-09T15:13:09;18.90;1.00
11107;DHT22;5607;48.302;14.294;2022-09-09T15:15:55;19.00;1.00
11107;DHT22;5607;48.302;14.294;2022-09-09T15:18:42;19.00;1.00
11107;DHT22;5607;48.302;14.294;2022-09-09T15:21:33;19.00;1.00
11107;DHT22;5607;48.302;14.294;2022-09-09T15:24:19;18.90;1.00
11107;DHT22;5607;48.302;14.294;2022-09-09T15:27:06;18.80;1.00
11107;DHT22;5607;48.302;14.294;2022-09-09T15:29:52;18.80;1.00
11107;DHT22;5607;48.302;14.294;2022-09-09T15:32:38;18.70;1.00
11107;DHT22;5607;48.302;14.294;2022-09-09T15:35:25;18.60;1.00
11107;DHT22;5607;48.302;14.294;2022-09-09T15:38:11;18.60;1.00
11107;DHT22;5607;48.302;14.294;2022-09-09T15:41:01;18.60;1.00
11107;DHT22;5607;48.302;14.294;2022-09-09T15:43:51;18.60;1.00
11107;DHT22;5607;48.302;14.294;2022-09-09T15:46:39;18.50;1.00
11107;DHT22;5607;48.302;14.294;2022-09-09T15:49:26;18.50;1.00
11107;DHT22;5607;48.302;14.294;2022-09-09T15:52:12;18.40;1.00
11107;DHT22;5607;48.302;14.294;2022-09-09T15:54:59;18.40;1.00
11107;DHT22;5607;48.302;14.294;2022-09-09T15:57:46;18.30;1.00
11107;DHT22;5607;48.302;14.294;2022-09-09T16:00:32;18.30;1.00
11107;DHT22;5607;48.302;14.294;2022-09-09T16:03:20;18.20;1.00
11107;DHT22;5607;48.302;14.294;2022-09-09T16:06:06;18.10;1.00
11107;DHT22;5607;48.302;14.294;2022-09-09T16:08:53;18.20;1.00
11107;DHT22;5607;48.302;14.294;2022-09-09T16:11:40;18.20;1.00
11107;DHT22;5607;48.302;14.294;2022-09-09T16:14:26;18.20;1.00
11107;DHT22;5607;48.302;14.294;2022-09-09T16:17:13;18.30;1.00
11107;DHT22;5607;48.302;14.294;2022-09-09T16:20:00;18.30;1.00
11107;DHT22;5607;48.302;14.294;2022-09-09T16:22:46;18.40;1.00
11107;DHT22;5607;48.302;14.294;2022-09-09T16:25:32;18.40;1.00
11107;DHT22;5607;48.302;14.294;2022-09-09T16:28:19;18.50;1.00
11107;DHT22;5607;48.302;14.294;2022-09-09T16:31:06;18.50;1.00
11107;DHT22;5607;48.302;14.294;2022-09-09T16:33:52;18.40;1.00
11107;DHT22;5607;48.302;14.294;2022-09-09T16:36:39;18.40;1.00
11107;DHT22;5607;48.302;14.294;2022-09-09T16:39:26;18.40;1.00
11107;DHT22;5607;48.302;14.294;2022-09-09T16:42:12;18.30;1.00
11107;DHT22;5607;48.302;14.294;2022-09-09T16:44:58;18.40;1.00
11107;DHT22;5607;48.302;14.294;2022-09-09T16:47:45;18.40;1.00
11107;DHT22;5607;48.302;14.294;2022-09-09T16:50:31;18.40;1.00
11107;DHT22;5607;48.302;14.294;2022-09-09T16:53:17;18.30;1.00
11107;DHT22;5607;48.302;14.294;2022-09-09T16:56:07;18.30;1.00
11107;DHT22;5607;48.302;14.294;2022-09-09T16:58:55;18.20;1.00
11107;DHT22;5607;48.302;14.294;2022-09-09T17:01:42;18.20;1.00
11107;DHT22;5607;48.302;14.294;2022-09-09T17:04:29;18.20;1.00
11107;DHT22;5607;48.302;14.294;2022-09-09T17:07:16;18.20;1.00
11107;DHT22;5607;48.302;14.294;2022-09-09T17:10:05;18.30;1.00
11107;DHT22;5607;48.302;14.294;2022-09-09T17:12:52;18.30;1.00
11107;DHT22;5607;48.302;14.294;2022-09-09T17:15:39;18.30;1.00
11107;DHT22;5607;48.302;14.294;2022-09-09T17:18:28;18.30;1.00
11107;DHT22;5607;48.302;14.294;2022-09-09T17:21:15;18.20;1.00
11107;DHT22;5607;48.302;14.294;2022-09-09T17:24:02;18.30;1.00
11107;DHT22;5607;48.302;14.294;2022-09-09T17:26:48;18.20;1.00
11107;DHT22;5607;48.302;14.294;2022-09-09T17:29:34;18.10;1.00
11107;DHT22;5607;48.302;14.294;2022-09-09T17:32:21;18.00;1.00
11107;DHT22;5607;48.302;14.294;2022-09-09T17:35:08;18.00;1.00
11107;DHT22;5607;48.302;14.294;2022-09-09T17:37:54;17.80;1.00
11107;DHT22;5607;48.302;14.294;2022-09-09T17:40:40;17.70;1.00
11107;DHT22;5607;48.302;14.294;2022-09-09T17:43:27;17.70;1.00
11107;DHT22;5607;48.302;14.294;2022-09-09T17:46:17;17.80;1.00
11107;DHT22;5607;48.302;14.294;2022-09-09T17:49:07;17.70;1.00
11107;DHT22;5607;48.302;14.294;2022-09-09T17:51:53;17.70;1.00
11107;DHT22;5607;48.302;14.294;2022-09-09T17:54:41;17.80;1.00
11107;DHT22;5607;48.302;14.294;2022-09-09T17:57:27;17.90;1.00
11107;DHT22;5607;48.302;14.294;2022-09-09T18:00:14;17.90;1.00
11107;DHT22;5607;48.302;14.294;2022-09-09T18:03:00;17.80;1.00
11107;DHT22;5607;48.302;14.294;2022-09-09T18:05:47;17.80;1.00
11107;DHT22;5607;48.302;14.294;2022-09-09T18:08:33;17.80;1.00
11107;DHT22;5607;48.302;14.294;2022-09-09T18:11:21;17.80;1.00
11107;DHT22;5607;48.302;14.294;2022-09-09T18:14:10;17.80;1.00
11107;DHT22;5607;48.302;14.294;2022-09-09T18:16:58;17.80;1.00
11107;DHT22;5607;48.302;14.294;2022-09-09T18:19:45;17.80;1.00
11107;DHT22;5607;48.302;14.294;2022-09-09T18:22:31;17.80;1.00
11107;DHT22;5607;48.302;14.294;2022-09-09T18:25:18;17.80;1.00
11107;DHT22;5607;48.302;14.294;2022-09-09T18:28:04;17.80;1.00
11107;DHT22;5607;48.302;14.294;2022-09-09T18:30:51;17.90;1.00
11107;DHT22;5607;48.302;14.294;2022-09-09T18:33:39;17.90;1.00
11107;DHT22;5607;48.302;14.294;2022-09-09T18:36:27;17.90;1.00
11107;DHT22;5607;48.302;14.294;2022-09-09T18:39:14;17.80;1.00
11107;DHT22;5607;48.302;14.294;2022-09-09T18:42:01;17.80;1.00
11107;DHT22;5607;48.302;14.294;2022-09-09T18:44:47;17.80;1.00
11107;DHT22;5607;48.302;14.294;2022-09-09T18:47:33;17.80;1.00
11107;DHT22;5607;48.302;14.294;2022-09-09T18:50:20;17.70;1.00
11107;DHT22;5607;48.302;14.294;2022-09-09T18:53:06;17.60;1.00
11107;DHT22;5607;48.302;14.294;2022-09-09T18:56:00;17.60;1.00
11107;DHT22;5607;48.302;14.294;2022-09-09T18:58:50;17.60;1.00
11107;DHT22;5607;48.302;14.294;2022-09-09T19:01:36;17.60;1.00
11107;DHT22;5607;48.302;14.294;2022-09-09T19:04:23;17.60;1.00
11107;DHT22;5607;48.302;14.294;2022-09-09T19:07:09;17.50;1.00
11107;DHT22;5607;48.302;14.294;2022-09-09T19:09:56;17.60;1.00
11107;DHT22;5607;48.302;14.294;2022-09-09T19:12:42;17.50;1.00
11107;DHT22;5607;48.302;14.294;2022-09-09T19:15:28;17.40;1.00
11107;DHT22;5607;48.302;14.294;2022-09-09T19:18:14;17.40;1.00
11107;DHT22;5607;48.302;14.294;2022-09-09T19:21:14;17.30;1.00
11107;DHT22;5607;48.302;14.294;2022-09-09T19:26:52;17.40;1.00
11107;DHT22;5607;48.302;14.294;2022-09-09T19:29:38;17.40;1.00
11107;DHT22;5607;48.302;14.294;2022-09-09T19:32:25;17.40;1.00
11107;DHT22;5607;48.302;14.294;2022-09-09T19:35:11;17.50;1.00
11107;DHT22;5607;48.302;14.294;2022-09-09T19:37:58;17.50;1.00
11107;DHT22;5607;48.302;14.294;2022-09-09T19:40:44;17.50;1.00
11107;DHT22;5607;48.302;14.294;2022-09-09T19:43:31;17.50;1.00
11107;DHT22;5607;48.302;14.294;2022-09-09T19:46:17;17.50;1.00
11107;DHT22;5607;48.302;14.294;2022-09-09T19:49:04;17.50;1.00
11107;DHT22;5607;48.302;14.294;2022-09-09T19:51:51;17.50;1.00
11107;DHT22;5607;48.302;14.294;2022-09-09T19:54:37;17.50;1.00
11107;DHT22;5607;48.302;14.294;2022-09-09T19:57:23;17.50;1.00
11107;DHT22;5607;48.302;14.294;2022-09-09T20:00:13;17.50;1.00